Krasnaya Polyana, Russia
Current Conditions -  °F | °C
As of 1:30 AM on Monday 22 Dec 2014 (Local Time) from URMT Reporting Station
Clear Clear  
Wind Chill: 38°   Ceiling: Unl
Heat Index: 43°   Visibility: 6mi
Dew Point: 36°   Wind: 9mph
Humidity: 76%   Direction: 200°SSW
Pressure: 29.8"   Gusts: 16mph
Location:  44.98°N, 41.12°E
Report Text: URMT 212230Z 20004G07MPS CAVOK 06/02 Q1009 NOSIG RMK QFE718SC055
Loading
Personal Weather Stations






























Interactive Weather Map New forecast layout! Learn more

10-Day Weather Forecast

Advertisements
Track Severe Weather on mobile